createdAt,value
2017-03-22T00:00:12.410Z,16.58
2017-03-22T00:01:17.213Z,16.25
2017-03-22T00:02:22.877Z,18.70
2017-03-22T00:03:29.294Z,17.83
2017-03-22T00:04:34.157Z,16.63
2017-03-22T00:05:39.978Z,16.13
2017-03-22T00:06:45.489Z,15.80
2017-03-22T00:07:51.812Z,15.30
2017-03-22T00:08:56.757Z,15.65
2017-03-22T00:10:03.212Z,16.45
2017-03-22T00:11:08.832Z,17.68
2017-03-22T00:12:13.677Z,17.60
2017-03-22T00:13:19.910Z,19.02
2017-03-22T00:14:24.698Z,18.12
2017-03-22T00:15:31.114Z,19.78
2017-03-22T00:16:35.881Z,18.73
2017-03-22T00:17:42.125Z,18.58
2017-03-22T00:18:47.781Z,17.80
2017-03-22T00:19:53.529Z,18.45
2017-03-22T00:20:59.216Z,23.27
2017-03-22T00:22:04.707Z,20.27
2017-03-22T00:23:10.318Z,20.25
2017-03-22T00:24:16.013Z,21.22
2017-03-22T00:25:22.469Z,19.38
2017-03-22T00:26:27.322Z,18.32
2017-03-22T00:27:33.827Z,17.42
2017-03-22T00:28:38.591Z,18.12
2017-03-22T00:29:46.148Z,19.23
2017-03-22T00:30:52.272Z,18.68
2017-03-22T00:31:58.350Z,16.73
2017-03-22T00:33:03.128Z,19.12
2017-03-22T00:34:08.801Z,17.80
2017-03-22T00:35:15.326Z,18.55
2017-03-22T00:36:20.173Z,18.55
2017-03-22T00:37:26.628Z,15.38
2017-03-22T00:38:31.357Z,19.90
2017-03-22T00:39:36.841Z,17.65
2017-03-22T00:40:42.633Z,17.60
2017-03-22T00:41:47.483Z,17.25
2017-03-22T00:42:52.206Z,16.98
2017-03-22T00:43:57.790Z,19.62
2017-03-22T00:45:02.603Z,24.18
2017-03-22T00:46:08.983Z,51.83
2017-03-22T00:47:13.859Z,51.82
2017-03-22T00:48:20.369Z,31.78
2017-03-22T00:49:25.292Z,26.83
2017-03-22T00:50:31.651Z,21.68
2017-03-22T00:51:36.595Z,24.63
2017-03-22T00:52:42.230Z,24.83
2017-03-22T00:53:46.958Z,25.68
2017-03-22T00:54:52.554Z,20.47
2017-03-22T00:55:58.914Z,19.95
2017-03-22T00:57:03.861Z,27.38
2017-03-22T00:58:09.546Z,21.05
2017-03-22T00:59:15.889Z,20.53
2017-03-22T01:00:21.545Z,22.05
2017-03-22T01:01:26.325Z,22.98
2017-03-22T01:02:32.077Z,19.95
2017-03-22T01:03:37.633Z,20.30
2017-03-22T01:04:43.908Z,20.53
2017-03-22T01:05:48.902Z,19.85
2017-03-22T01:06:56.028Z,22.03
2017-03-22T01:08:00.938Z,20.03
2017-03-22T01:09:07.209Z,20.82
2017-03-22T01:10:12.230Z,19.67
2017-03-22T01:11:18.728Z,19.13
2017-03-22T01:12:24.219Z,22.57
2017-03-22T01:13:29.978Z,17.52
2017-03-22T01:14:34.819Z,30.17
2017-03-22T01:15:40.483Z,29.80
2017-03-22T01:16:46.022Z,23.33
2017-03-22T01:17:51.634Z,24.73
2017-03-22T01:18:58.051Z,25.20
2017-03-22T01:20:04.526Z,20.40
2017-03-22T01:21:10.038Z,16.77
2017-03-22T01:22:14.876Z,20.87
2017-03-22T01:23:21.300Z,20.90
2017-03-22T01:24:27.014Z,19.13
2017-03-22T01:25:33.516Z,21.07
2017-03-22T01:26:38.236Z,19.48
2017-03-22T01:27:43.729Z,20.42
2017-03-22T01:28:49.209Z,17.87
2017-03-22T01:29:54.897Z,22.10
2017-03-22T01:31:01.281Z,18.43
2017-03-22T01:32:06.901Z,18.52
2017-03-22T01:33:12.503Z,17.28
2017-03-22T01:34:18.943Z,20.10
2017-03-22T01:35:24.500Z,20.15
2017-03-22T01:36:30.186Z,19.25
2017-03-22T01:37:35.925Z,20.48
2017-03-22T01:38:42.077Z,21.35
2017-03-22T01:39:46.915Z,18.90
2017-03-22T01:40:53.251Z,24.58
2017-03-22T01:41:58.870Z,21.13
2017-03-22T01:43:04.442Z,21.67
2017-03-22T01:44:09.175Z,22.82
2017-03-22T01:45:14.933Z,20.67
2017-03-22T01:46:21.185Z,19.77
2017-03-22T01:47:26.086Z,19.85
2017-03-22T01:48:32.355Z,21.02
2017-03-22T01:49:37.107Z,18.53
2017-03-22T01:50:43.517Z,19.57
2017-03-22T01:51:49.150Z,20.27
2017-03-22T01:52:54.779Z,22.03
2017-03-22T01:53:59.589Z,18.62
2017-03-22T01:55:05.873Z,18.48
2017-03-22T01:56:11.296Z,18.92
2017-03-22T01:57:16.153Z,19.75
2017-03-22T01:58:21.694Z,23.20
2017-03-22T01:59:28.049Z,18.75
2017-03-22T02:00:33.005Z,21.82
2017-03-22T02:01:38.496Z,21.25
2017-03-22T02:02:45.081Z,19.77
2017-03-22T02:03:49.848Z,21.28
2017-03-22T02:04:55.272Z,21.08
2017-03-22T02:06:01.745Z,22.63
2017-03-22T02:07:07.411Z,28.23
2017-03-22T02:08:13.187Z,26.63
2017-03-22T02:09:18.645Z,24.28
2017-03-22T02:10:24.228Z,19.75
2017-03-22T02:11:29.841Z,22.80
2017-03-22T02:12:34.768Z,21.13
2017-03-22T02:13:42.194Z,19.40
2017-03-22T02:14:47.030Z,21.92
2017-03-22T02:15:53.398Z,20.57
2017-03-22T02:16:59.865Z,22.33
2017-03-22T02:18:04.859Z,21.03
2017-03-22T02:19:10.209Z,21.23
2017-03-22T02:20:15.929Z,19.95
2017-03-22T02:21:21.453Z,21.52
2017-03-22T02:22:27.011Z,20.62
2017-03-22T02:23:32.660Z,18.93
2017-03-22T02:24:37.611Z,20.03
2017-03-22T02:25:43.947Z,22.30
2017-03-22T02:26:48.769Z,23.60
2017-03-22T02:27:53.514Z,21.20
2017-03-22T02:28:59.263Z,19.62
2017-03-22T02:30:05.606Z,20.78
2017-03-22T02:31:10.365Z,25.03
2017-03-22T02:32:16.755Z,21.18
2017-03-22T02:33:21.669Z,19.18
2017-03-22T02:34:27.394Z,18.75
2017-03-22T02:35:32.891Z,21.38
2017-03-22T02:36:38.457Z,22.53
2017-03-22T02:37:44.889Z,24.08
2017-03-22T02:38:50.626Z,24.95
2017-03-22T02:39:55.304Z,26.72
2017-03-22T02:41:01.838Z,28.37
2017-03-22T02:42:07.444Z,20.23
2017-03-22T02:43:12.970Z,17.80
2017-03-22T02:44:18.441Z,21.27
2017-03-22T02:45:24.193Z,20.27
2017-03-22T02:46:28.869Z,21.90
2017-03-22T02:47:35.292Z,21.83
2017-03-22T02:48:40.038Z,18.40
2017-03-22T02:49:46.333Z,18.83
2017-03-22T02:50:51.130Z,20.23
2017-03-22T02:51:55.966Z,19.50
2017-03-22T02:53:02.297Z,19.25
2017-03-22T02:54:07.969Z,20.97
2017-03-22T02:55:13.509Z,20.93
2017-03-22T02:56:18.453Z,18.93
2017-03-22T02:57:24.898Z,19.92
2017-03-22T02:58:30.641Z,20.97
2017-03-22T02:59:36.410Z,19.20
2017-03-22T03:00:42.068Z,21.13
2017-03-22T03:01:47.672Z,22.62
2017-03-22T03:02:55.258Z,20.53
2017-03-22T03:04:00.201Z,20.87
2017-03-22T03:05:05.684Z,25.72
2017-03-22T03:06:10.391Z,22.28
2017-03-22T03:07:16.786Z,21.92
2017-03-22T03:08:21.666Z,22.78
2017-03-22T03:09:27.233Z,27.40
2017-03-22T03:10:33.541Z,23.32
2017-03-22T03:11:39.281Z,20.07
2017-03-22T03:12:44.142Z,25.22
2017-03-22T03:13:50.521Z,21.35
2017-03-22T03:14:56.165Z,22.62
2017-03-22T03:16:01.089Z,25.68
2017-03-22T03:17:07.386Z,21.82
2017-03-22T03:18:13.831Z,24.45
2017-03-22T03:19:19.756Z,20.92
2017-03-22T03:20:24.521Z,25.23
2017-03-22T03:21:30.038Z,21.47
2017-03-22T03:22:36.462Z,23.27
2017-03-22T03:23:41.362Z,22.00
2017-03-22T03:24:48.597Z,20.27
2017-03-22T03:25:54.469Z,22.47
2017-03-22T03:27:00.131Z,20.28
2017-03-22T03:28:05.813Z,20.60
2017-03-22T03:29:10.737Z,20.10
2017-03-22T03:30:16.456Z,22.42
2017-03-22T03:31:21.954Z,21.98
2017-03-22T03:32:26.656Z,20.35
2017-03-22T03:33:33.098Z,22.53
2017-03-22T03:34:37.724Z,21.28
2017-03-22T03:35:44.134Z,20.37
2017-03-22T03:36:48.993Z,20.95
2017-03-22T03:37:55.446Z,22.22
2017-03-22T03:39:00.774Z,22.73
2017-03-22T03:40:05.698Z,21.23
2017-03-22T03:41:12.145Z,26.92
2017-03-22T03:42:16.971Z,23.33
2017-03-22T03:43:22.537Z,22.28
2017-03-22T03:44:28.849Z,28.37
2017-03-22T03:45:34.725Z,24.90
2017-03-22T03:46:41.021Z,22.68
2017-03-22T03:47:45.900Z,22.38
2017-03-22T03:48:52.153Z,20.10
2017-03-22T03:49:57.673Z,20.65
2017-03-22T03:51:03.210Z,20.97
2017-03-22T03:52:08.417Z,20.50
2017-03-22T03:53:13.902Z,25.52
2017-03-22T03:54:20.310Z,23.33
2017-03-22T03:55:25.273Z,27.42
2017-03-22T03:56:31.553Z,22.87
2017-03-22T03:57:36.509Z,23.45
2017-03-22T03:58:42.086Z,24.48
2017-03-22T03:59:47.605Z,26.93
2017-03-22T04:00:52.307Z,25.77
2017-03-22T04:01:58.881Z,23.68
2017-03-22T04:03:03.820Z,26.32
2017-03-22T04:04:09.407Z,24.55
2017-03-22T04:05:14.145Z,27.82
2017-03-22T04:06:20.604Z,22.40
2017-03-22T04:07:25.457Z,20.27
2017-03-22T04:08:31.939Z,20.20
2017-03-22T04:09:37.471Z,21.82
2017-03-22T04:10:43.080Z,22.97
2017-03-22T04:11:48.757Z,24.47
2017-03-22T04:12:53.411Z,29.95
2017-03-22T04:13:59.906Z,26.23
2017-03-22T04:15:04.724Z,30.02
2017-03-22T04:16:11.141Z,24.50
2017-03-22T04:17:16.838Z,26.07
2017-03-22T04:18:21.629Z,21.65
2017-03-22T04:19:28.167Z,22.25
2017-03-22T04:20:33.024Z,23.57
2017-03-22T04:21:39.355Z,22.82
2017-03-22T04:22:44.356Z,22.25
2017-03-22T04:23:50.050Z,23.43
2017-03-22T04:24:55.661Z,26.82
2017-03-22T04:26:01.169Z,26.25
2017-03-22T04:27:06.200Z,29.10
2017-03-22T04:28:12.387Z,27.40
2017-03-22T04:29:17.217Z,29.13
2017-03-22T04:30:23.026Z,31.22
2017-03-22T04:31:29.280Z,24.22
2017-03-22T04:32:34.092Z,26.88
2017-03-22T04:33:40.534Z,29.05
2017-03-22T04:34:46.026Z,27.40
2017-03-22T04:35:50.881Z,27.13
2017-03-22T04:36:57.188Z,24.90
2017-03-22T04:38:02.142Z,24.57
2017-03-22T04:39:07.459Z,27.72
2017-03-22T04:40:13.037Z,23.92
2017-03-22T04:41:19.374Z,37.07
2017-03-22T04:42:25.054Z,32.55
2017-03-22T04:43:29.896Z,26.30
2017-03-22T04:44:34.676Z,25.12
2017-03-22T04:45:40.105Z,25.03
2017-03-22T04:46:45.688Z,24.72
2017-03-22T04:47:51.422Z,27.58
2017-03-22T04:48:56.316Z,28.62
2017-03-22T04:50:01.842Z,28.03
2017-03-22T04:51:06.516Z,27.67
2017-03-22T04:52:12.091Z,27.97
2017-03-22T04:53:16.713Z,25.12
2017-03-22T04:54:23.125Z,28.43
2017-03-22T04:55:28.536Z,31.78
2017-03-22T04:56:33.544Z,24.40
2017-03-22T04:57:40.026Z,33.95
2017-03-22T04:58:45.549Z,32.28
2017-03-22T04:59:50.193Z,27.02
2017-03-22T05:00:56.545Z,26.08
2017-03-22T05:02:02.134Z,23.25
2017-03-22T05:03:06.847Z,22.45
2017-03-22T05:04:12.531Z,23.67
2017-03-22T05:05:18.882Z,27.18
2017-03-22T05:06:24.425Z,36.92
2017-03-22T05:07:29.236Z,28.60
2017-03-22T05:08:35.781Z,25.00
2017-03-22T05:09:41.324Z,26.55
2017-03-22T05:10:47.009Z,23.75
2017-03-22T05:11:51.828Z,22.15
2017-03-22T05:12:58.262Z,27.10
2017-03-22T05:14:04.780Z,38.18
2017-03-22T05:15:10.334Z,36.48
2017-03-22T05:16:15.211Z,34.22
2017-03-22T05:17:20.706Z,30.40
2017-03-22T05:18:25.470Z,38.48
2017-03-22T05:19:31.100Z,33.73
2017-03-22T05:20:36.720Z,36.67
2017-03-22T05:21:42.213Z,41.32
2017-03-22T05:22:48.591Z,32.50
2017-03-22T05:23:53.440Z,27.03
2017-03-22T05:24:59.863Z,27.08
2017-03-22T05:26:04.800Z,29.20
2017-03-22T05:27:11.188Z,27.73
2017-03-22T05:28:16.905Z,29.07
2017-03-22T05:29:22.686Z,27.90
2017-03-22T05:30:27.438Z,24.27
2017-03-22T05:31:33.094Z,27.23
2017-03-22T05:32:39.557Z,30.67
2017-03-22T05:33:44.354Z,24.25
2017-03-22T05:34:50.718Z,31.33
2017-03-22T05:35:56.439Z,31.65
2017-03-22T05:37:01.194Z,30.08
2017-03-22T05:38:05.977Z,24.62
2017-03-22T05:39:12.341Z,30.27
2017-03-22T05:40:17.300Z,29.47
2017-03-22T05:41:24.705Z,30.82
2017-03-22T05:42:30.302Z,30.27
2017-03-22T05:43:35.142Z,26.38
2017-03-22T05:44:40.576Z,26.40
2017-03-22T05:45:45.987Z,28.78
2017-03-22T05:46:51.697Z,29.72
2017-03-22T05:47:57.297Z,29.53
2017-03-22T05:49:05.666Z,28.50
2017-03-22T05:50:10.703Z,25.40
2017-03-22T05:51:16.992Z,28.95
2017-03-22T05:52:22.778Z,30.55
2017-03-22T05:53:27.737Z,23.75
2017-03-22T05:54:33.181Z,28.23
2017-03-22T05:55:38.710Z,27.82
2017-03-22T05:56:44.266Z,28.40
2017-03-22T05:57:49.022Z,28.20
2017-03-22T05:58:55.297Z,25.08
2017-03-22T06:00:00.892Z,25.08
2017-03-22T06:01:05.936Z,24.93
2017-03-22T06:02:12.319Z,26.47
2017-03-22T06:03:17.101Z,25.10
2017-03-22T06:04:22.700Z,25.60
2017-03-22T06:05:28.390Z,36.58
2017-03-22T06:06:33.916Z,31.57
2017-03-22T06:07:38.780Z,30.58
2017-03-22T06:08:45.437Z,28.13
2017-03-22T06:09:51.093Z,27.77
2017-03-22T06:10:57.565Z,31.75
2017-03-22T06:12:02.521Z,30.58
2017-03-22T06:13:07.250Z,34.18
2017-03-22T06:14:13.769Z,24.73
2017-03-22T06:15:19.362Z,28.87
2017-03-22T06:16:24.146Z,25.05
2017-03-22T06:17:30.493Z,28.97
2017-03-22T06:18:35.359Z,27.63
2017-03-22T06:19:41.061Z,34.67
2017-03-22T06:20:46.613Z,31.15
2017-03-22T06:21:52.220Z,24.15
2017-03-22T06:22:58.593Z,23.87
2017-03-22T06:24:04.446Z,26.15
2017-03-22T06:25:09.165Z,29.42
2017-03-22T06:26:14.800Z,31.42
2017-03-22T06:27:20.412Z,24.45
2017-03-22T06:28:26.024Z,23.65
2017-03-22T06:29:32.293Z,25.32
2017-03-22T06:30:37.954Z,23.55
2017-03-22T06:31:42.694Z,26.13
2017-03-22T06:32:49.061Z,22.90
2017-03-22T06:33:54.703Z,23.80
2017-03-22T06:34:59.699Z,22.45
2017-03-22T06:36:06.009Z,21.72
2017-03-22T06:37:10.701Z,22.62
2017-03-22T06:38:17.090Z,30.43
2017-03-22T06:39:21.979Z,25.65
2017-03-22T06:40:27.657Z,26.57
2017-03-22T06:41:35.077Z,27.70
2017-03-22T06:42:39.913Z,22.72
2017-03-22T06:43:45.454Z,22.45
2017-03-22T06:44:51.821Z,29.73
2017-03-22T06:45:56.738Z,26.18
2017-03-22T06:47:02.587Z,24.62
2017-03-22T06:48:07.764Z,23.98
2017-03-22T06:49:13.921Z,24.17
2017-03-22T06:50:19.577Z,23.90
2017-03-22T06:51:24.513Z,28.70
2017-03-22T06:52:30.253Z,24.22
2017-03-22T06:53:35.618Z,22.15
2017-03-22T06:54:41.129Z,23.13
2017-03-22T06:55:45.969Z,27.68
2017-03-22T06:56:52.462Z,25.47
2017-03-22T06:57:58.909Z,25.43
2017-03-22T06:59:03.654Z,26.30
2017-03-22T07:00:09.942Z,28.45
2017-03-22T07:01:14.704Z,27.03
2017-03-22T07:02:20.351Z,26.15
2017-03-22T07:03:26.774Z,23.13
2017-03-22T07:04:32.303Z,22.28
2017-03-22T07:05:37.198Z,26.88
2017-03-22T07:06:43.636Z,23.90
2017-03-22T07:07:49.234Z,28.08
2017-03-22T07:08:54.785Z,23.48
2017-03-22T07:10:00.215Z,25.70
2017-03-22T07:11:05.798Z,24.27
2017-03-22T07:12:12.317Z,27.30
2017-03-22T07:13:17.901Z,27.35
2017-03-22T07:14:23.681Z,26.93
2017-03-22T07:15:29.426Z,30.15
2017-03-22T07:16:35.056Z,25.38
2017-03-22T07:17:39.839Z,28.60
2017-03-22T07:18:46.229Z,27.53
2017-03-22T07:19:51.879Z,27.67
2017-03-22T07:20:57.273Z,28.70
2017-03-22T07:22:02.104Z,26.30
2017-03-22T07:23:07.934Z,27.67
2017-03-22T07:24:13.378Z,29.72
2017-03-22T07:25:19.791Z,26.77
2017-03-22T07:26:24.678Z,27.82
2017-03-22T07:27:31.108Z,30.90
2017-03-22T07:28:36.031Z,27.45
2017-03-22T07:29:41.536Z,28.63
2017-03-22T07:30:47.013Z,28.93
2017-03-22T07:31:51.822Z,28.82
2017-03-22T07:33:01.032Z,26.70
2017-03-22T07:34:07.011Z,29.85
2017-03-22T07:35:13.433Z,27.70
2017-03-22T07:36:18.369Z,25.70
2017-03-22T07:37:24.097Z,25.30
2017-03-22T07:38:30.527Z,25.20
2017-03-22T07:39:37.905Z,27.02
2017-03-22T07:40:42.920Z,23.75
2017-03-22T07:41:48.470Z,28.15
2017-03-22T07:42:53.257Z,30.25
2017-03-22T07:43:58.825Z,26.38
2017-03-22T07:45:04.530Z,26.20
2017-03-22T07:46:10.217Z,26.67
2017-03-22T07:47:15.689Z,23.93
2017-03-22T07:48:21.132Z,26.22
2017-03-22T07:49:26.077Z,23.75
2017-03-22T07:50:32.508Z,26.42
2017-03-22T07:51:37.233Z,25.02
2017-03-22T07:52:43.649Z,26.45
2017-03-22T07:53:48.469Z,27.12
2017-03-22T07:54:54.018Z,27.55
2017-03-22T07:55:59.523Z,26.95
2017-03-22T07:57:05.160Z,26.92
2017-03-22T07:58:10.177Z,27.38
2017-03-22T07:59:15.721Z,27.68
2017-03-22T08:00:21.285Z,28.97
2017-03-22T08:01:26.781Z,31.38
2017-03-22T08:02:34.708Z,28.08
2017-03-22T08:03:39.943Z,27.28
2017-03-22T08:04:44.748Z,29.18
2017-03-22T08:05:51.054Z,31.13
2017-03-22T08:06:55.893Z,27.63
2017-03-22T08:08:02.498Z,28.50
2017-03-22T08:09:08.085Z,26.72
2017-03-22T08:10:13.622Z,31.87
2017-03-22T08:11:19.246Z,30.08
2017-03-22T08:12:26.670Z,30.98
2017-03-22T08:13:31.734Z,31.25
2017-03-22T08:14:37.105Z,29.52
2017-03-22T08:15:42.757Z,32.77
2017-03-22T08:16:49.072Z,29.25
2017-03-22T08:17:54.669Z,30.72
2017-03-22T08:18:59.531Z,30.03
2017-03-22T08:20:05.093Z,29.22
2017-03-22T08:21:11.325Z,28.27
2017-03-22T08:22:16.909Z,26.68
2017-03-22T08:23:21.876Z,26.55
2017-03-22T08:24:27.449Z,28.45
2017-03-22T08:25:32.949Z,30.20
2017-03-22T08:26:39.381Z,29.43
2017-03-22T08:27:45.826Z,27.55
2017-03-22T08:28:51.733Z,27.47
2017-03-22T08:29:56.565Z,29.02
2017-03-22T08:31:02.882Z,27.82
2017-03-22T08:32:07.540Z,30.17
2017-03-22T08:33:13.897Z,26.87
2017-03-22T08:34:18.769Z,26.02
2017-03-22T08:35:25.069Z,29.45
2017-03-22T08:36:30.114Z,28.63
2017-03-22T08:37:36.341Z,25.52
2017-03-22T08:38:41.420Z,25.35
2017-03-22T08:39:47.144Z,25.87
2017-03-22T08:40:51.857Z,26.98
2017-03-22T08:41:58.184Z,27.45
2017-03-22T08:43:02.952Z,21.30
2017-03-22T08:44:08.563Z,19.88
2017-03-22T08:45:15.069Z,20.52
2017-03-22T08:46:19.876Z,17.98
2017-03-22T08:47:25.372Z,18.27
2017-03-22T08:48:32.498Z,19.65
2017-03-22T08:49:38.479Z,18.57
2017-03-22T08:50:43.380Z,17.98
2017-03-22T08:51:48.657Z,25.80
2017-03-22T08:52:55.045Z,25.32
2017-03-22T08:53:59.896Z,29.68
2017-03-22T08:55:05.384Z,27.10
2017-03-22T08:56:10.204Z,23.42
2017-03-22T08:57:16.616Z,25.98
2017-03-22T08:58:22.411Z,24.65
2017-03-22T08:59:28.068Z,26.45
2017-03-22T09:00:33.768Z,23.60
2017-03-22T09:01:38.601Z,23.27
2017-03-22T09:02:44.809Z,21.82
2017-03-22T09:03:49.797Z,21.47
2017-03-22T09:04:55.426Z,23.73
2017-03-22T09:06:01.805Z,22.73
2017-03-22T09:07:07.400Z,27.67
2017-03-22T09:08:12.968Z,23.17
2017-03-22T09:09:17.761Z,25.10
2017-03-22T09:10:23.429Z,20.48
2017-03-22T09:11:29.685Z,21.52
2017-03-22T09:12:34.686Z,20.92
2017-03-22T09:13:40.066Z,22.45
2017-03-22T09:14:44.765Z,21.33
2017-03-22T09:15:49.524Z,20.48
2017-03-22T09:16:55.105Z,18.75
2017-03-22T09:18:00.644Z,18.85
2017-03-22T09:19:06.549Z,17.08
2017-03-22T09:20:12.745Z,19.48
2017-03-22T09:21:18.440Z,19.02
2017-03-22T09:22:23.274Z,20.55
2017-03-22T09:23:28.938Z,18.65
2017-03-22T09:24:33.673Z,20.18
2017-03-22T09:25:40.033Z,19.52
2017-03-22T09:26:44.935Z,23.78
2017-03-22T09:27:50.586Z,18.88
2017-03-22T09:28:56.284Z,20.07
2017-03-22T09:30:02.607Z,18.43
2017-03-22T09:31:07.409Z,17.22
2017-03-22T09:32:13.021Z,20.88
2017-03-22T09:33:17.749Z,16.60
2017-03-22T09:34:23.280Z,20.25
2017-03-22T09:35:28.868Z,20.50
2017-03-22T09:36:33.616Z,20.78
2017-03-22T09:37:39.236Z,20.98
2017-03-22T09:38:45.694Z,19.03
2017-03-22T09:39:52.209Z,22.67
2017-03-22T09:40:57.716Z,19.52
2017-03-22T09:42:03.352Z,19.13
2017-03-22T09:43:08.210Z,15.53
2017-03-22T09:44:13.764Z,16.40
2017-03-22T09:45:19.144Z,16.18
2017-03-22T09:46:23.933Z,16.47
2017-03-22T09:47:30.133Z,17.30
2017-03-22T09:48:35.888Z,16.40
2017-03-22T09:49:40.821Z,15.85
2017-03-22T09:50:47.285Z,16.73
2017-03-22T09:51:52.725Z,15.55
2017-03-22T09:52:58.268Z,17.88
2017-03-22T09:54:03.133Z,16.80
2017-03-22T09:55:09.532Z,16.50
2017-03-22T09:56:14.277Z,15.40
2017-03-22T09:57:19.749Z,14.93
2017-03-22T09:58:24.401Z,16.18
2017-03-22T09:59:29.186Z,17.35
2017-03-22T10:00:34.601Z,16.78
2017-03-22T10:01:40.248Z,15.42
2017-03-22T10:02:45.730Z,15.38
2017-03-22T10:03:50.500Z,15.30
2017-03-22T10:04:56.860Z,14.30
2017-03-22T10:06:01.666Z,13.02
2017-03-22T10:07:08.137Z,12.87
2017-03-22T10:08:12.864Z,12.80
2017-03-22T10:09:18.464Z,14.38
2017-03-22T10:10:23.549Z,12.75
2017-03-22T10:11:28.725Z,13.75
2017-03-22T10:12:34.049Z,13.72
2017-03-22T10:13:38.833Z,9.93
2017-03-22T10:14:44.380Z,14.68
2017-03-22T10:15:50.746Z,13.12
2017-03-22T10:16:55.593Z,12.05
2017-03-22T10:18:01.168Z,10.35
2017-03-22T10:19:06.638Z,10.88
2017-03-22T10:20:12.237Z,10.20
2017-03-22T10:21:21.073Z,8.78
2017-03-22T10:22:26.453Z,10.45
2017-03-22T10:23:32.854Z,9.72
2017-03-22T10:24:38.451Z,9.28
2017-03-22T10:25:44.065Z,11.95
2017-03-22T10:26:49.020Z,9.52
2017-03-22T10:27:55.248Z,8.83
2017-03-22T10:29:01.014Z,8.52
2017-03-22T10:30:08.137Z,8.37
2017-03-22T10:31:13.525Z,8.95
2017-03-22T10:32:19.773Z,8.00
2017-03-22T10:33:25.409Z,8.10
2017-03-22T10:34:30.282Z,9.73
2017-03-22T10:35:36.653Z,6.97
2017-03-22T10:36:41.429Z,6.78
2017-03-22T10:37:47.034Z,9.27
2017-03-22T10:38:53.364Z,8.28
2017-03-22T10:39:58.153Z,6.73
2017-03-22T10:41:03.652Z,7.63
2017-03-22T10:42:09.295Z,7.37
2017-03-22T10:43:15.533Z,7.77
2017-03-22T10:44:20.179Z,7.50
2017-03-22T10:45:27.620Z,6.87
2017-03-22T10:46:32.372Z,5.53
2017-03-22T10:47:37.900Z,8.00
2017-03-22T10:48:43.322Z,6.62
2017-03-22T10:49:48.890Z,6.43
2017-03-22T10:50:53.785Z,5.37
2017-03-22T10:51:59.320Z,5.60
2017-03-22T10:53:04.062Z,6.17
2017-03-22T10:54:08.756Z,8.03
2017-03-22T10:55:14.344Z,6.23
2017-03-22T10:56:19.927Z,7.35
2017-03-22T10:57:25.573Z,7.60
2017-03-22T10:58:31.288Z,7.12
2017-03-22T10:59:37.948Z,6.00
2017-03-22T11:00:44.090Z,6.13
2017-03-22T11:01:48.928Z,7.22
2017-03-22T11:02:55.348Z,7.18
2017-03-22T11:04:00.169Z,6.80
2017-03-22T11:05:05.709Z,7.32
2017-03-22T11:06:11.281Z,6.02
2017-03-22T11:07:17.689Z,6.82
2017-03-22T11:08:23.232Z,7.53
2017-03-22T11:09:28.100Z,6.47
2017-03-22T11:10:33.690Z,6.17
2017-03-22T11:11:39.281Z,6.20
2017-03-22T11:12:46.713Z,7.65
2017-03-22T11:13:51.609Z,6.15
2017-03-22T11:14:57.088Z,6.68
2017-03-22T11:16:02.670Z,6.28
2017-03-22T11:17:07.452Z,7.92
2017-03-22T11:18:12.912Z,8.27
2017-03-22T11:19:19.258Z,9.25
2017-03-22T11:20:24.868Z,6.97
2017-03-22T11:21:29.829Z,7.42
2017-03-22T11:22:36.993Z,9.20
2017-03-22T11:23:42.032Z,6.95
2017-03-22T11:24:48.249Z,7.57
2017-03-22T11:25:53.148Z,9.93
2017-03-22T11:26:59.469Z,7.18
2017-03-22T11:28:04.597Z,6.72
2017-03-22T11:29:10.696Z,6.78
2017-03-22T11:30:15.709Z,6.52
2017-03-22T11:31:22.057Z,7.27
2017-03-22T11:32:27.044Z,6.98
2017-03-22T11:33:32.629Z,7.43
2017-03-22T11:34:38.154Z,6.60
2017-03-22T11:35:43.618Z,6.97
2017-03-22T11:36:49.296Z,6.57
2017-03-22T11:37:54.109Z,7.07
2017-03-22T11:38:59.742Z,6.37
2017-03-22T11:40:05.360Z,6.77
2017-03-22T11:41:12.409Z,7.25
2017-03-22T11:42:18.334Z,7.45
2017-03-22T11:43:23.246Z,6.40
2017-03-22T11:44:28.860Z,7.02
2017-03-22T11:45:35.265Z,6.38
2017-03-22T11:46:40.045Z,6.35
2017-03-22T11:47:46.317Z,6.70
2017-03-22T11:48:51.120Z,6.38
2017-03-22T11:49:56.665Z,7.68
2017-03-22T11:51:02.153Z,5.35
2017-03-22T11:52:06.905Z,7.62
2017-03-22T11:53:13.252Z,7.15
2017-03-22T11:54:18.639Z,6.67
2017-03-22T11:55:23.533Z,6.92
2017-03-22T11:56:29.945Z,7.45
2017-03-22T11:57:34.997Z,5.98
2017-03-22T11:58:40.567Z,7.42
2017-03-22T11:59:45.353Z,6.73
2017-03-22T12:00:50.154Z,6.62
2017-03-22T12:01:54.901Z,6.92
2017-03-22T12:03:01.321Z,7.30
2017-03-22T12:04:05.979Z,6.82
2017-03-22T12:05:10.648Z,6.88
2017-03-22T12:06:19.221Z,6.08
2017-03-22T12:07:24.744Z,7.05
2017-03-22T12:08:29.685Z,6.12
2017-03-22T12:09:35.293Z,5.57
2017-03-22T12:10:41.562Z,5.45
2017-03-22T12:11:46.962Z,6.35
2017-03-22T12:12:53.548Z,8.37
2017-03-22T12:13:59.134Z,5.92
2017-03-22T12:15:03.988Z,5.73
2017-03-22T12:16:11.124Z,6.37
2017-03-22T12:17:16.096Z,6.72
2017-03-22T12:18:21.776Z,7.25
2017-03-22T12:19:28.485Z,5.32
2017-03-22T12:20:34.920Z,5.67
2017-03-22T12:21:40.957Z,5.33
2017-03-22T12:22:46.378Z,6.90
2017-03-22T12:23:51.998Z,8.55
2017-03-22T12:24:56.741Z,5.97
2017-03-22T12:26:02.224Z,6.00
2017-03-22T12:27:08.776Z,6.78
2017-03-22T12:28:15.081Z,5.77
2017-03-22T12:29:19.964Z,5.75
2017-03-22T12:30:25.442Z,6.23
2017-03-22T12:31:30.971Z,6.33
2017-03-22T12:32:35.637Z,6.65
2017-03-22T12:33:40.329Z,6.32
2017-03-22T12:34:45.802Z,8.37
2017-03-22T12:35:51.234Z,6.12
2017-03-22T12:36:56.902Z,5.85
2017-03-22T12:38:01.740Z,5.98
2017-03-22T12:39:07.390Z,5.98
2017-03-22T12:40:12.221Z,6.62
2017-03-22T12:41:18.334Z,5.80
2017-03-22T12:42:23.894Z,5.17
2017-03-22T12:43:28.680Z,5.50
2017-03-22T12:44:34.297Z,6.50
2017-03-22T12:45:41.674Z,6.05
2017-03-22T12:46:46.481Z,5.75
2017-03-22T12:47:51.133Z,6.00
2017-03-22T12:48:57.541Z,7.35
2017-03-22T12:50:02.341Z,5.73
2017-03-22T12:51:07.861Z,7.27
2017-03-22T12:52:13.391Z,6.27
2017-03-22T12:53:19.003Z,6.18
2017-03-22T12:54:25.331Z,6.90
2017-03-22T12:55:30.260Z,5.68
2017-03-22T12:56:36.142Z,5.70
2017-03-22T12:57:41.464Z,5.62
2017-03-22T12:58:46.185Z,6.17
2017-03-22T12:59:51.780Z,5.27
2017-03-22T13:00:57.214Z,5.55
2017-03-22T13:02:02.806Z,5.87
2017-03-22T13:03:09.045Z,5.25
2017-03-22T13:04:13.764Z,5.93
2017-03-22T13:05:18.476Z,5.92
2017-03-22T13:06:24.008Z,5.28
2017-03-22T13:07:28.764Z,5.67
2017-03-22T13:08:35.080Z,5.42
2017-03-22T13:09:40.661Z,5.33
2017-03-22T13:10:46.209Z,5.62
2017-03-22T13:11:50.973Z,5.28
2017-03-22T13:12:57.389Z,5.30
2017-03-22T13:14:02.985Z,5.42
2017-03-22T13:15:08.589Z,5.03
2017-03-22T13:16:13.377Z,5.52
2017-03-22T13:17:19.041Z,5.03
2017-03-22T13:18:24.689Z,5.13
2017-03-22T13:19:30.141Z,6.93
2017-03-22T13:20:34.997Z,5.08
2017-03-22T13:21:41.357Z,5.90
2017-03-22T13:22:46.259Z,5.67
2017-03-22T13:23:51.825Z,5.40
2017-03-22T13:24:57.448Z,5.63
2017-03-22T13:26:03.874Z,5.47
2017-03-22T13:27:08.765Z,5.25
2017-03-22T13:28:14.193Z,6.65
2017-03-22T13:29:20.525Z,5.60
2017-03-22T13:30:25.288Z,5.02
2017-03-22T13:31:31.565Z,5.32
2017-03-22T13:32:36.606Z,7.05
2017-03-22T13:33:41.264Z,5.52
2017-03-22T13:34:45.964Z,5.93
2017-03-22T13:35:51.517Z,5.35
2017-03-22T13:36:57.060Z,6.17
2017-03-22T13:38:01.765Z,5.63
2017-03-22T13:39:08.112Z,5.88
2017-03-22T13:40:14.626Z,6.58
2017-03-22T13:41:20.263Z,5.40
2017-03-22T13:42:25.041Z,6.07
2017-03-22T13:43:29.756Z,5.98
2017-03-22T13:44:36.089Z,6.47
2017-03-22T13:45:46.083Z,5.95
2017-03-22T13:46:50.870Z,6.88
2017-03-22T13:47:56.520Z,7.90
2017-03-22T13:49:02.013Z,6.17
2017-03-22T13:50:07.607Z,6.73
2017-03-22T13:51:13.137Z,6.82
2017-03-22T13:52:17.766Z,6.47
2017-03-22T13:53:22.465Z,7.03
2017-03-22T13:54:27.265Z,6.97
2017-03-22T13:55:33.552Z,7.20
2017-03-22T13:56:39.186Z,7.92
2017-03-22T13:57:44.788Z,6.65
2017-03-22T13:58:50.396Z,6.22
2017-03-22T13:59:56.653Z,6.13
2017-03-22T14:01:01.485Z,6.82
2017-03-22T14:02:08.291Z,6.20
2017-03-22T14:03:13.741Z,5.73
2017-03-22T14:04:19.306Z,6.18
2017-03-22T14:05:25.589Z,6.80
2017-03-22T14:06:30.365Z,6.03
2017-03-22T14:07:36.073Z,7.03
2017-03-22T14:08:41.650Z,5.75
2017-03-22T14:09:46.353Z,6.32
2017-03-22T14:10:51.949Z,6.23
2017-03-22T14:11:57.584Z,6.10